createdAt,value
2022-08-28T00:00:12.711Z,1.00
2022-08-28T00:02:39.827Z,1.00
2022-08-28T00:05:08.241Z,1.00
2022-08-28T00:07:35.276Z,1.00
2022-08-28T00:10:01.965Z,1.00
2022-08-28T00:12:28.889Z,1.00
2022-08-28T00:14:55.549Z,1.00
2022-08-28T00:19:50.312Z,1.00
2022-08-28T00:22:17.080Z,1.00
2022-08-28T00:24:44.642Z,1.00
2022-08-28T00:27:30.822Z,1.00
2022-08-28T00:29:57.518Z,1.00
2022-08-28T00:32:25.224Z,1.00
2022-08-28T00:34:52.163Z,1.00
2022-08-28T00:37:19.120Z,1.00
2022-08-28T00:39:46.421Z,1.00
2022-08-28T00:42:14.205Z,1.00
2022-08-28T00:44:41.262Z,1.00
2022-08-28T00:47:08.557Z,1.00
2022-08-28T00:49:37.838Z,1.00
2022-08-28T00:52:08.086Z,1.00
2022-08-28T00:57:27.054Z,1.00
2022-08-28T00:59:53.949Z,1.00
2022-08-28T01:02:21.380Z,1.00
2022-08-28T01:04:48.627Z,1.00
2022-08-28T01:07:17.105Z,1.00
2022-08-28T01:09:47.025Z,1.00
2022-08-28T01:12:23.224Z,1.00
2022-08-28T01:14:51.399Z,1.00
2022-08-28T01:17:20.999Z,1.00
2022-08-28T01:19:56.490Z,1.00
2022-08-28T01:22:39.255Z,1.00
2022-08-28T01:25:13.206Z,1.00
2022-08-28T01:27:42.101Z,1.00
2022-08-28T01:30:15.123Z,1.00
2022-08-28T01:32:45.464Z,1.00
2022-08-28T01:35:15.331Z,1.00
2022-08-28T01:37:42.602Z,1.00
2022-08-28T01:40:11.009Z,1.00
2022-08-28T01:42:39.379Z,1.00
2022-08-28T01:45:11.219Z,1.00
2022-08-28T01:47:38.919Z,1.00
2022-08-28T01:50:07.478Z,1.00
2022-08-28T01:52:34.238Z,1.00
2022-08-28T01:55:01.497Z,1.00
2022-08-28T01:57:32.131Z,1.00
2022-08-28T02:00:00.000Z,1.00
2022-08-28T02:02:26.893Z,1.00
2022-08-28T02:04:53.935Z,1.00
2022-08-28T02:07:20.732Z,1.00
2022-08-28T02:09:47.653Z,1.00
2022-08-28T02:12:14.686Z,1.00
2022-08-28T02:14:41.409Z,1.00
2022-08-28T02:17:08.066Z,1.00
2022-08-28T02:19:34.814Z,1.00
2022-08-28T02:22:01.609Z,1.00
2022-08-28T02:24:28.393Z,1.00
2022-08-28T02:26:55.185Z,1.00
2022-08-28T02:29:22.035Z,1.00
2022-08-28T02:31:48.728Z,1.00
2022-08-28T02:34:15.518Z,1.00
2022-08-28T02:36:42.669Z,1.00
2022-08-28T02:39:09.541Z,1.00
2022-08-28T02:41:36.490Z,1.00
2022-08-28T02:44:03.740Z,1.00
2022-08-28T02:46:30.616Z,1.00
2022-08-28T02:48:57.355Z,1.00
2022-08-28T02:51:24.152Z,1.00
2022-08-28T02:53:52.185Z,1.00
2022-08-28T02:56:18.955Z,1.00
2022-08-28T02:58:45.770Z,1.00
2022-08-28T03:01:13.571Z,1.00
2022-08-28T03:03:41.494Z,1.00
2022-08-28T03:06:09.817Z,1.00
2022-08-28T03:08:36.638Z,1.00
2022-08-28T03:11:03.623Z,1.00
2022-08-28T03:13:30.539Z,1.00
2022-08-28T03:15:57.787Z,1.00
2022-08-28T03:18:30.301Z,1.00
2022-08-28T03:20:57.411Z,1.00
2022-08-28T03:23:27.221Z,1.00
2022-08-28T03:25:55.189Z,1.00
2022-08-28T03:28:22.058Z,1.00
2022-08-28T03:30:49.708Z,1.00
2022-08-28T03:33:17.029Z,1.00
2022-08-28T03:35:43.861Z,1.00
2022-08-28T03:38:11.902Z,1.00
2022-08-28T03:40:43.168Z,1.00
2022-08-28T03:43:16.423Z,1.00
2022-08-28T03:45:58.959Z,1.00
2022-08-28T03:48:28.653Z,1.00
2022-08-28T03:50:55.799Z,1.00
2022-08-28T03:53:25.073Z,1.00
2022-08-28T03:55:52.032Z,1.00
2022-08-28T03:58:19.402Z,1.00
2022-08-28T04:00:46.864Z,1.00
2022-08-28T04:03:13.801Z,1.00
2022-08-28T04:05:41.991Z,1.00
2022-08-28T04:08:09.378Z,1.00
2022-08-28T04:10:36.742Z,1.00
2022-08-28T04:13:03.975Z,1.00
2022-08-28T04:15:30.712Z,1.00
2022-08-28T04:17:57.457Z,1.00
2022-08-28T04:20:24.247Z,1.00
2022-08-28T04:22:55.073Z,1.00
2022-08-28T04:25:22.741Z,1.00
2022-08-28T04:27:51.019Z,1.00
2022-08-28T04:30:18.809Z,1.00
2022-08-28T04:32:45.696Z,1.00
2022-08-28T04:35:14.433Z,1.00
2022-08-28T04:37:43.737Z,1.00
2022-08-28T04:40:11.910Z,1.00
2022-08-28T04:42:40.150Z,1.00
2022-08-28T04:45:07.872Z,1.00
2022-08-28T04:47:38.914Z,1.00
2022-08-28T04:50:07.396Z,1.00
2022-08-28T04:52:34.445Z,1.00
2022-08-28T04:55:01.699Z,1.00
2022-08-28T04:57:29.795Z,1.00
2022-08-28T04:59:58.976Z,1.00
2022-08-28T05:02:25.817Z,1.00
2022-08-28T05:04:52.842Z,1.00
2022-08-28T05:07:19.516Z,1.00
2022-08-28T05:09:46.245Z,1.00
2022-08-28T05:12:17.228Z,1.00
2022-08-28T05:14:46.464Z,1.00
2022-08-28T05:17:14.343Z,1.00
2022-08-28T05:19:41.891Z,1.00
2022-08-28T05:22:09.940Z,1.00
2022-08-28T05:24:38.134Z,1.00
2022-08-28T05:27:05.085Z,1.00
2022-08-28T05:29:31.814Z,1.00
2022-08-28T05:31:58.593Z,1.00
2022-08-28T05:34:25.618Z,1.00
2022-08-28T05:36:52.437Z,1.00
2022-08-28T05:39:19.229Z,1.00
2022-08-28T05:41:46.383Z,1.00
2022-08-28T05:44:15.443Z,1.00
2022-08-28T05:46:44.577Z,1.00
2022-08-28T05:49:13.144Z,1.00
2022-08-28T05:51:41.745Z,1.00
2022-08-28T05:54:08.831Z,1.00
2022-08-28T05:56:38.581Z,1.00
2022-08-28T05:59:09.160Z,1.00
2022-08-28T06:01:40.450Z,1.00
2022-08-28T06:04:17.678Z,1.00
2022-08-28T06:06:44.843Z,1.00
2022-08-28T06:09:29.367Z,1.00
2022-08-28T06:11:59.044Z,1.00
2022-08-28T06:14:26.153Z,1.00
2022-08-28T06:16:54.754Z,1.00
2022-08-28T06:19:23.387Z,1.00
2022-08-28T06:21:52.942Z,1.00
2022-08-28T06:37:49.603Z,1.00
2022-08-28T06:40:16.468Z,1.00
2022-08-28T06:42:43.192Z,1.00
2022-08-28T06:45:10.393Z,1.00
2022-08-28T06:47:37.056Z,1.00
2022-08-28T06:50:04.255Z,1.00
2022-08-28T06:52:31.198Z,1.00
2022-08-28T06:54:58.119Z,1.00
2022-08-28T06:57:26.077Z,1.00
2022-08-28T06:59:57.407Z,1.00
2022-08-28T07:02:24.321Z,1.00
2022-08-28T07:04:55.165Z,1.00
2022-08-28T07:07:32.707Z,1.00
2022-08-28T07:09:59.537Z,1.00
2022-08-28T07:12:26.246Z,1.00
2022-08-28T07:14:53.020Z,1.00
2022-08-28T07:17:19.851Z,1.00
2022-08-28T07:19:46.949Z,1.00
2022-08-28T07:22:13.662Z,1.00
2022-08-28T07:24:40.603Z,1.00
2022-08-28T07:27:08.802Z,1.00
2022-08-28T07:29:35.615Z,1.00
2022-08-28T07:32:03.887Z,1.00
2022-08-28T07:34:31.040Z,1.60
2022-08-28T07:37:04.059Z,1.00
2022-08-28T07:39:30.834Z,1.00
2022-08-28T07:41:57.535Z,1.00
2022-08-28T07:44:43.139Z,1.00
2022-08-28T07:47:11.576Z,1.00
2022-08-28T07:49:38.795Z,1.00
2022-08-28T07:52:07.042Z,1.00
2022-08-28T07:54:36.072Z,1.00
2022-08-28T07:57:07.027Z,1.00
2022-08-28T07:59:36.885Z,1.00
2022-08-28T08:02:04.503Z,1.00
2022-08-28T08:04:31.540Z,1.00
2022-08-28T08:06:58.439Z,1.00
2022-08-28T08:09:26.048Z,1.00
2022-08-28T08:11:54.745Z,1.00
2022-08-28T08:14:21.984Z,1.00
2022-08-28T08:16:49.012Z,1.00
2022-08-28T08:19:16.647Z,1.00
2022-08-28T08:21:45.182Z,1.00
2022-08-28T08:24:17.977Z,1.00
2022-08-28T08:27:00.298Z,1.00
2022-08-28T08:29:35.977Z,1.00
2022-08-28T08:32:07.041Z,2.30
2022-08-28T08:34:36.588Z,1.00
2022-08-28T08:37:03.764Z,1.00
2022-08-28T08:39:31.723Z,1.00
2022-08-28T08:41:59.980Z,1.00
2022-08-28T08:44:33.577Z,1.00
2022-08-28T08:47:03.946Z,1.00
2022-08-28T08:49:36.049Z,1.00
2022-08-28T08:52:11.747Z,1.00
2022-08-28T08:54:43.430Z,1.00
2022-08-28T08:57:14.967Z,1.00
2022-08-28T08:59:42.318Z,1.00
2022-08-28T09:02:15.408Z,1.00
2022-08-28T09:04:53.824Z,1.00
2022-08-28T09:07:44.770Z,1.00
2022-08-28T09:10:13.659Z,1.00
2022-08-28T09:13:02.645Z,1.00
2022-08-28T09:15:35.975Z,1.00
2022-08-28T09:18:18.821Z,1.00
2022-08-28T09:20:50.063Z,1.00
2022-08-28T09:23:16.766Z,1.00
2022-08-28T09:25:47.519Z,1.00
2022-08-28T09:28:24.915Z,1.00
2022-08-28T09:31:04.945Z,1.00
2022-08-28T09:33:31.974Z,1.00
2022-08-28T09:35:58.917Z,1.00
2022-08-28T09:38:28.148Z,1.00
2022-08-28T09:41:28.418Z,1.00
2022-08-28T09:43:55.502Z,1.00
2022-08-28T09:46:28.111Z,1.00
2022-08-28T09:49:11.915Z,1.00
2022-08-28T09:51:39.825Z,1.00
2022-08-28T09:54:09.000Z,1.00
2022-08-28T09:56:39.838Z,1.00
2022-08-28T09:59:10.427Z,1.00
2022-08-28T10:01:44.876Z,1.00
2022-08-28T10:04:37.535Z,1.00
2022-08-28T10:07:06.420Z,1.00
2022-08-28T10:09:48.008Z,1.00
2022-08-28T10:12:17.493Z,1.00
2022-08-28T10:14:57.105Z,1.00
2022-08-28T10:17:27.787Z,1.00
2022-08-28T10:19:59.694Z,1.00
2022-08-28T10:22:52.699Z,1.00
2022-08-28T10:25:42.878Z,1.00
2022-08-28T10:28:29.494Z,1.00
2022-08-28T10:31:07.709Z,1.00
2022-08-28T10:33:43.452Z,1.00
2022-08-28T10:36:33.209Z,1.00
2022-08-28T10:39:17.998Z,1.00
2022-08-28T10:42:05.148Z,1.00
2022-08-28T10:45:10.457Z,1.00
2022-08-28T10:47:40.428Z,1.00
2022-08-28T10:50:25.437Z,1.00
2022-08-28T10:53:18.647Z,1.00
2022-08-28T10:56:27.277Z,1.00
2022-08-28T10:58:58.975Z,1.00
2022-08-28T11:01:34.583Z,1.00
2022-08-28T11:04:04.285Z,1.00
2022-08-28T11:06:48.109Z,1.00
2022-08-28T11:09:36.501Z,1.00
2022-08-28T11:12:26.245Z,1.00
2022-08-28T11:14:52.935Z,1.00
2022-08-28T11:17:25.726Z,1.00
2022-08-28T11:20:09.830Z,1.00
2022-08-28T11:22:44.474Z,1.00
2022-08-28T11:25:27.665Z,1.00
2022-08-28T11:28:24.380Z,1.00
2022-08-28T11:31:06.274Z,1.00
2022-08-28T11:33:50.711Z,1.00
2022-08-28T11:36:20.352Z,1.00
2022-08-28T11:38:53.542Z,1.00
2022-08-28T11:41:29.689Z,1.00
2022-08-28T11:44:09.106Z,1.00
2022-08-28T11:46:41.280Z,1.00
2022-08-28T11:49:26.309Z,1.00
2022-08-28T11:52:38.259Z,1.00
2022-08-28T11:55:08.507Z,1.00
2022-08-28T11:57:57.537Z,1.00
2022-08-28T12:00:28.863Z,1.00
2022-08-28T12:03:14.868Z,1.00
2022-08-28T12:05:47.351Z,1.00
2022-08-28T12:08:48.913Z,1.00
2022-08-28T12:11:40.489Z,1.00
2022-08-28T12:14:11.335Z,1.00
2022-08-28T12:16:59.517Z,1.00
2022-08-28T12:19:28.850Z,1.00
2022-08-28T12:21:55.791Z,1.00
2022-08-28T12:24:24.423Z,1.00
2022-08-28T12:26:54.696Z,1.00
2022-08-28T12:29:48.539Z,1.00
2022-08-28T12:32:36.680Z,1.00
2022-08-28T12:35:07.583Z,1.00
2022-08-28T12:38:00.059Z,1.00
2022-08-28T12:40:33.502Z,1.00
2022-08-28T12:43:01.059Z,1.00
2022-08-28T12:45:38.271Z,1.00
2022-08-28T12:48:18.602Z,1.00
2022-08-28T12:50:45.594Z,1.00
2022-08-28T12:53:16.296Z,1.00
2022-08-28T12:55:45.838Z,1.00
2022-08-28T12:58:34.044Z,1.00
2022-08-28T13:01:15.033Z,1.00
2022-08-28T13:03:45.246Z,1.00
2022-08-28T13:06:12.636Z,1.00
2022-08-28T13:08:39.863Z,1.00
2022-08-28T13:11:06.993Z,99.90
2022-08-28T13:13:40.116Z,99.90
2022-08-28T13:16:09.343Z,99.90
2022-08-28T13:19:10.728Z,99.90
2022-08-28T13:22:00.579Z,99.90
2022-08-28T13:24:27.385Z,99.90
2022-08-28T13:27:06.460Z,1.00
2022-08-28T13:29:33.782Z,99.90
2022-08-28T13:32:06.571Z,1.00
2022-08-28T13:34:38.272Z,99.90
2022-08-28T13:37:14.939Z,99.90
2022-08-28T13:39:47.352Z,99.90
2022-08-28T13:42:16.450Z,99.90
2022-08-28T13:44:48.727Z,99.90
2022-08-28T13:47:16.232Z,99.90
2022-08-28T13:49:43.192Z,99.90
2022-08-28T13:52:10.641Z,1.00
2022-08-28T13:54:41.580Z,99.90
2022-08-28T13:57:10.656Z,99.90
2022-08-28T13:59:37.372Z,1.00
2022-08-28T14:02:26.295Z,34.10
2022-08-28T14:04:53.713Z,1.00
2022-08-28T14:07:20.473Z,91.70
2022-08-28T14:09:47.307Z,1.00
2022-08-28T14:12:14.163Z,1.00
2022-08-28T14:14:41.045Z,99.90
2022-08-28T14:17:08.540Z,1.00
2022-08-28T14:19:35.523Z,1.00
2022-08-28T14:22:02.492Z,48.70
2022-08-28T14:24:29.527Z,99.90
2022-08-28T14:26:56.306Z,1.00
2022-08-28T14:29:23.087Z,1.00
2022-08-28T14:31:50.283Z,99.90
2022-08-28T14:34:20.015Z,99.90
2022-08-28T14:36:50.816Z,99.90
2022-08-28T14:39:18.033Z,1.00
2022-08-28T14:41:49.304Z,1.00
2022-08-28T14:44:18.205Z,1.00
2022-08-28T14:46:46.973Z,99.90
2022-08-28T14:49:16.116Z,1.00
2022-08-28T14:51:44.129Z,1.00
2022-08-28T14:54:13.121Z,99.90
2022-08-28T14:56:41.728Z,99.90
2022-08-28T15:02:59.941Z,99.90
2022-08-28T15:05:26.824Z,1.00
2022-08-28T15:07:53.697Z,99.90
2022-08-28T15:10:20.744Z,99.90
2022-08-28T15:12:47.911Z,99.90
2022-08-28T15:15:14.696Z,99.90
2022-08-28T15:17:41.457Z,99.90
2022-08-28T15:20:09.001Z,1.00
2022-08-28T15:22:36.401Z,52.20
2022-08-28T15:25:06.791Z,1.00
2022-08-28T15:27:33.693Z,1.00
2022-08-28T15:30:02.272Z,1.00
2022-08-28T15:32:29.088Z,1.00
2022-08-28T15:34:55.883Z,1.00
2022-08-28T15:37:22.673Z,1.00
2022-08-28T15:40:08.271Z,1.00
2022-08-28T15:42:35.016Z,99.90
2022-08-28T15:45:01.812Z,99.90
2022-08-28T15:47:28.507Z,99.90
2022-08-28T15:49:56.502Z,99.90
2022-08-28T15:52:24.759Z,1.00
2022-08-28T15:54:51.471Z,99.90
2022-08-28T15:57:18.553Z,99.90
2022-08-28T15:59:49.365Z,88.50
2022-08-28T16:02:18.076Z,99.90
2022-08-28T16:04:44.828Z,2.30
2022-08-28T16:07:11.553Z,1.00
2022-08-28T16:09:38.443Z,53.00
2022-08-28T16:12:05.671Z,1.00
2022-08-28T16:14:33.111Z,1.00
2022-08-28T16:17:03.941Z,1.00
2022-08-28T16:19:32.909Z,1.00
2022-08-28T16:22:00.251Z,99.90
2022-08-28T16:24:27.022Z,99.90
2022-08-28T16:26:53.838Z,99.90
2022-08-28T16:29:21.021Z,99.90
2022-08-28T16:31:48.795Z,99.90
2022-08-28T16:34:19.605Z,99.90
2022-08-28T16:36:50.362Z,99.90
2022-08-28T16:39:17.530Z,99.90
2022-08-28T16:41:49.739Z,99.90
2022-08-28T16:44:20.667Z,99.90
2022-08-28T16:46:47.548Z,99.90
2022-08-28T16:49:15.020Z,99.90
2022-08-28T16:51:44.931Z,99.90
2022-08-28T16:54:15.631Z,99.90
2022-08-28T16:56:43.191Z,99.90
2022-08-28T16:59:10.759Z,99.90
2022-08-28T17:01:42.631Z,99.90
2022-08-28T17:04:10.256Z,99.90
2022-08-28T17:06:37.175Z,99.90
2022-08-28T17:09:04.092Z,1.00
2022-08-28T17:11:31.121Z,1.00
2022-08-28T17:14:01.225Z,1.00
2022-08-28T17:23:57.312Z,1.00
2022-08-28T17:26:24.971Z,1.00
2022-08-28T17:28:52.175Z,1.00
2022-08-28T17:31:19.302Z,1.00
2022-08-28T17:33:46.211Z,1.00
2022-08-28T17:36:30.745Z,53.60
2022-08-28T17:39:02.278Z,99.90
2022-08-28T17:41:29.500Z,99.90
2022-08-28T17:43:56.406Z,99.90
2022-08-28T17:46:23.340Z,99.90
2022-08-28T17:48:54.327Z,99.90
2022-08-28T17:51:41.831Z,99.90
2022-08-28T17:54:12.507Z,99.90
2022-08-28T17:56:39.364Z,99.90
2022-08-28T17:59:06.148Z,99.90
2022-08-28T18:01:33.256Z,99.90
2022-08-28T18:04:00.260Z,1.00
2022-08-28T18:06:27.147Z,1.00
2022-08-28T18:08:54.585Z,1.00
2022-08-28T18:11:21.278Z,1.00
2022-08-28T18:13:48.077Z,1.00
2022-08-28T18:16:14.954Z,1.00
2022-08-28T18:18:43.028Z,27.70
2022-08-28T18:21:11.097Z,27.80
2022-08-28T18:23:40.021Z,97.10
2022-08-28T18:26:09.920Z,99.90
2022-08-28T18:28:37.122Z,99.90
2022-08-28T18:31:06.422Z,99.90
2022-08-28T18:33:34.258Z,99.90
2022-08-28T18:36:02.098Z,99.90
2022-08-28T18:38:30.014Z,99.90
2022-08-28T18:40:59.054Z,99.90
2022-08-28T18:43:26.053Z,99.90
2022-08-28T18:45:53.041Z,99.90
2022-08-28T18:48:19.961Z,1.00
2022-08-28T18:50:48.012Z,1.00
2022-08-28T18:53:16.434Z,1.00
2022-08-28T18:55:43.447Z,1.00
2022-08-28T18:58:14.000Z,1.00
2022-08-28T19:00:42.689Z,78.70
2022-08-28T19:03:09.903Z,99.90
2022-08-28T19:05:37.495Z,94.40
2022-08-28T19:08:04.478Z,99.90
2022-08-28T19:10:34.498Z,99.90
2022-08-28T19:13:02.133Z,99.90
2022-08-28T19:15:29.333Z,99.90
2022-08-28T19:17:56.666Z,99.90
2022-08-28T19:20:23.504Z,99.90
2022-08-28T19:22:50.245Z,99.90
2022-08-28T19:25:28.663Z,99.90
2022-08-28T19:27:59.796Z,99.90
2022-08-28T19:30:29.440Z,1.00
2022-08-28T19:32:56.294Z,1.00
2022-08-28T19:35:24.207Z,1.00
2022-08-28T19:37:54.683Z,1.00
2022-08-28T19:40:22.158Z,1.00
2022-08-28T19:42:50.134Z,1.00
2022-08-28T19:45:17.988Z,33.60
2022-08-28T19:47:44.949Z,99.90
2022-08-28T19:50:12.854Z,99.90
2022-08-28T19:52:40.154Z,99.90
2022-08-28T19:55:07.673Z,99.90
2022-08-28T19:57:34.979Z,99.90
2022-08-28T20:00:02.328Z,1.00
2022-08-28T20:02:29.274Z,1.00
2022-08-28T20:04:56.117Z,1.00
2022-08-28T20:07:24.388Z,2.00
2022-08-28T20:09:51.929Z,99.90
2022-08-28T20:12:18.821Z,99.90
2022-08-28T20:14:45.725Z,99.90
2022-08-28T20:17:12.415Z,99.90
2022-08-28T20:19:39.342Z,1.00
2022-08-28T20:22:06.180Z,1.00
2022-08-28T20:24:33.125Z,1.00
2022-08-28T20:27:02.700Z,1.00
2022-08-28T20:29:29.545Z,99.90
2022-08-28T20:31:56.492Z,99.90
2022-08-28T20:34:23.598Z,1.00
2022-08-28T20:36:50.490Z,1.00
2022-08-28T20:39:18.126Z,1.00
2022-08-28T20:41:46.031Z,24.50
2022-08-28T20:44:15.450Z,99.90
2022-08-28T20:46:42.492Z,99.90
2022-08-28T20:49:10.998Z,99.90
2022-08-28T20:51:53.355Z,99.90
2022-08-28T20:54:30.455Z,1.00
2022-08-28T20:57:00.060Z,1.00
2022-08-28T20:59:33.410Z,1.00
2022-08-28T21:02:08.067Z,1.00
2022-08-28T21:04:37.035Z,1.00
2022-08-28T21:07:05.562Z,1.00
2022-08-28T21:09:39.513Z,1.00
2022-08-28T21:12:19.880Z,27.80
2022-08-28T21:14:51.472Z,64.90
2022-08-28T21:17:22.644Z,99.30
2022-08-28T21:19:57.305Z,99.90
2022-08-28T21:22:24.003Z,99.90
2022-08-28T21:24:51.061Z,99.90
2022-08-28T21:27:18.671Z,99.90
2022-08-28T21:29:46.159Z,99.90
2022-08-28T21:32:13.079Z,99.90
2022-08-28T21:34:39.899Z,99.90
2022-08-28T21:37:06.616Z,99.90
2022-08-28T21:39:33.684Z,99.90
2022-08-28T21:42:00.509Z,99.90
2022-08-28T21:44:27.399Z,99.90
2022-08-28T21:46:54.379Z,99.90
2022-08-28T21:49:22.700Z,99.90
2022-08-28T21:51:49.991Z,99.90
2022-08-28T21:54:18.184Z,99.90
2022-08-28T21:56:45.529Z,99.90
2022-08-28T21:59:12.344Z,99.90
2022-08-28T22:01:39.212Z,99.90
2022-08-28T22:04:06.334Z,99.90
2022-08-28T22:06:33.488Z,99.90
2022-08-28T22:09:00.616Z,99.90
2022-08-28T22:11:27.559Z,99.90
2022-08-28T22:13:55.784Z,99.90
2022-08-28T22:16:23.990Z,99.90
2022-08-28T22:18:51.119Z,1.00
2022-08-28T22:21:39.378Z,1.00
2022-08-28T22:24:07.328Z,1.00
2022-08-28T22:26:33.993Z,1.00
2022-08-28T22:29:00.972Z,1.00
2022-08-28T22:31:27.723Z,1.00
2022-08-28T22:33:54.673Z,1.00
2022-08-28T22:36:21.822Z,1.00
2022-08-28T22:38:53.474Z,1.00
2022-08-28T22:41:20.758Z,1.00
2022-08-28T22:43:51.534Z,1.00
2022-08-28T22:46:19.381Z,1.00
2022-08-28T22:48:46.307Z,1.00
2022-08-28T22:51:18.329Z,1.00
2022-08-28T22:53:45.527Z,1.00
2022-08-28T22:56:12.832Z,1.00
2022-08-28T22:58:40.174Z,1.00
2022-08-28T23:01:17.948Z,1.00
2022-08-28T23:03:45.113Z,1.00
2022-08-28T23:06:12.142Z,1.00
2022-08-28T23:08:38.987Z,1.00
2022-08-28T23:11:05.864Z,1.00
2022-08-28T23:13:33.185Z,1.00
2022-08-28T23:16:00.308Z,1.00
2022-08-28T23:18:27.768Z,1.00
2022-08-28T23:20:55.238Z,1.00
2022-08-28T23:23:23.598Z,1.00
2022-08-28T23:25:51.080Z,1.00
2022-08-28T23:28:18.845Z,1.00
2022-08-28T23:30:48.475Z,1.00
2022-08-28T23:33:23.698Z,1.00
2022-08-28T23:35:51.797Z,1.00
2022-08-28T23:38:18.732Z,1.00
2022-08-28T23:40:48.038Z,1.00
2022-08-28T23:43:15.115Z,1.00
2022-08-28T23:45:43.814Z,1.00
2022-08-28T23:48:11.044Z,1.00
2022-08-28T23:50:40.709Z,1.00
2022-08-28T23:53:08.412Z,1.00
2022-08-28T23:55:36.088Z,1.00
2022-08-28T23:58:03.734Z,1.00
